Minnehaha Springs, West Virginia
Current Conditions -  °F | °C
As of 8:15 PM on Saturday 22 Nov 2014 (Local Time) from KHSP Reporting Station
Clear Clear  
Wind Chill:   Ceiling: Unl
Heat Index:   Visibility: 10mi
Dew Point: -12°   Wind: 12mph
Humidity: 31%   Direction: 250°WSW
Pressure: 30.21"   Gusts: NA
Location:  38.2213°N, 80.0565°W
Report Text: KHSP 230115Z AUTO 25010KT 10SM CLR 05/M11 A3021 RMK AO2 T00451115
Loading
Personal Weather Stations






























Interactive Weather Map New forecast layout! Learn more

10-Day Weather Forecast

Advertisements
Track Severe Weather on mobile